createdAt,value
2023-05-16T00:00:35.333Z,1.15
2023-05-16T00:03:21.488Z,1.00
2023-05-16T00:06:07.216Z,1.15
2023-05-16T00:08:53.046Z,0.77
2023-05-16T00:11:38.446Z,0.82
2023-05-16T00:14:26.376Z,0.93
2023-05-16T00:17:12.347Z,0.77
2023-05-16T00:20:00.727Z,1.25
2023-05-16T00:22:46.362Z,1.10
2023-05-16T00:25:31.709Z,1.00
2023-05-16T00:28:17.264Z,0.93
2023-05-16T00:31:03.048Z,0.90
2023-05-16T00:33:48.490Z,1.20
2023-05-16T00:36:35.883Z,0.90
2023-05-16T00:39:21.352Z,2.05
2023-05-16T00:42:07.094Z,1.17
2023-05-16T00:44:52.444Z,0.95
2023-05-16T00:47:38.091Z,0.88
2023-05-16T00:50:24.639Z,1.05
2023-05-16T00:53:10.544Z,1.45
2023-05-16T00:55:57.179Z,0.80
2023-05-16T00:58:42.728Z,0.95
2023-05-16T01:01:28.796Z,0.88
2023-05-16T01:04:14.612Z,1.17
2023-05-16T01:07:01.501Z,1.10
2023-05-16T01:09:46.867Z,0.98
2023-05-16T01:12:53.612Z,0.93
2023-05-16T01:15:56.714Z,0.73
2023-05-16T01:18:56.300Z,1.27
2023-05-16T01:22:02.923Z,1.13
2023-05-16T01:25:10.455Z,1.13
2023-05-16T01:27:58.628Z,1.00
2023-05-16T01:30:45.046Z,1.20
2023-05-16T01:33:32.197Z,0.90
2023-05-16T01:36:24.823Z,1.17
2023-05-16T01:39:20.082Z,1.23
2023-05-16T01:42:14.540Z,0.70
2023-05-16T01:45:18.194Z,1.08
2023-05-16T01:48:10.973Z,1.40
2023-05-16T01:50:58.004Z,1.20
2023-05-16T01:53:45.460Z,1.10
2023-05-16T01:56:32.670Z,0.93
2023-05-16T01:59:21.316Z,1.13
2023-05-16T02:02:07.040Z,0.98
2023-05-16T02:04:52.526Z,1.40
2023-05-16T02:07:38.565Z,1.35
2023-05-16T02:10:24.418Z,1.35
2023-05-16T02:13:10.089Z,1.02
2023-05-16T02:15:55.524Z,1.38
2023-05-16T02:18:41.482Z,1.02
2023-05-16T02:21:27.234Z,1.20
2023-05-16T02:24:12.791Z,1.08
2023-05-16T02:26:58.357Z,1.50
2023-05-16T02:29:43.749Z,1.13
2023-05-16T02:32:29.058Z,1.20
2023-05-16T02:35:14.754Z,1.50
2023-05-16T02:38:00.374Z,1.75
2023-05-16T02:40:46.215Z,1.30
2023-05-16T02:43:32.088Z,1.55
2023-05-16T02:46:30.716Z,1.30
2023-05-16T02:49:17.112Z,1.05
2023-05-16T02:52:03.659Z,1.20
2023-05-16T02:55:09.204Z,2.03
2023-05-16T02:57:55.676Z,1.20
2023-05-16T03:00:40.929Z,1.67
2023-05-16T03:03:28.036Z,2.03
2023-05-16T03:06:13.439Z,1.38
2023-05-16T03:08:58.791Z,2.55
2023-05-16T03:11:45.212Z,1.30
2023-05-16T03:14:30.610Z,1.58
2023-05-16T03:17:16.222Z,1.35
2023-05-16T03:20:01.683Z,1.58
2023-05-16T03:22:47.109Z,1.83
2023-05-16T03:25:32.538Z,1.45
2023-05-16T03:28:18.448Z,1.13
2023-05-16T03:31:04.057Z,1.20
2023-05-16T03:33:49.361Z,1.92
2023-05-16T03:36:36.014Z,1.85
2023-05-16T03:39:21.936Z,1.88
2023-05-16T03:42:07.765Z,1.17
2023-05-16T03:44:53.171Z,1.30
2023-05-16T03:47:38.680Z,1.35
2023-05-16T03:50:24.035Z,1.02
2023-05-16T03:53:10.009Z,1.30
2023-05-16T03:55:55.483Z,1.08
2023-05-16T03:58:41.121Z,1.88
2023-05-16T04:01:26.814Z,0.93
2023-05-16T04:04:12.550Z,1.60
2023-05-16T04:06:58.323Z,1.35
2023-05-16T04:09:43.800Z,1.63
2023-05-16T04:12:29.146Z,1.27
2023-05-16T04:15:14.558Z,1.30
2023-05-16T04:17:59.910Z,1.77
2023-05-16T04:20:47.669Z,1.95
2023-05-16T04:23:33.095Z,1.23
2023-05-16T04:26:18.706Z,1.65
2023-05-16T04:29:04.448Z,2.17
2023-05-16T04:31:50.093Z,1.20
2023-05-16T04:34:39.798Z,1.40
2023-05-16T04:37:25.691Z,1.10
2023-05-16T04:40:13.096Z,1.48
2023-05-16T04:42:58.239Z,1.40
2023-05-16T04:45:43.629Z,1.08
2023-05-16T04:48:29.049Z,1.63
2023-05-16T04:51:14.645Z,1.08
2023-05-16T04:54:01.090Z,1.25
2023-05-16T04:56:46.656Z,1.90
2023-05-16T04:59:32.132Z,1.27
2023-05-16T05:02:17.851Z,1.40
2023-05-16T05:05:03.753Z,1.65
2023-05-16T05:07:49.379Z,1.08
2023-05-16T05:10:34.803Z,1.50
2023-05-16T05:13:20.172Z,1.48
2023-05-16T05:16:06.127Z,1.45
2023-05-16T05:18:51.774Z,1.60
2023-05-16T05:21:37.815Z,1.52
2023-05-16T05:24:23.299Z,1.65
2023-05-16T05:27:08.740Z,2.05
2023-05-16T05:29:54.050Z,1.25
2023-05-16T05:32:39.534Z,1.50
2023-05-16T05:35:25.018Z,1.38
2023-05-16T05:38:10.462Z,1.58
2023-05-16T05:40:55.975Z,1.38
2023-05-16T05:43:41.454Z,1.73
2023-05-16T05:46:27.137Z,2.00
2023-05-16T05:49:13.131Z,1.30
2023-05-16T05:51:58.484Z,1.48
2023-05-16T05:54:44.103Z,1.38
2023-05-16T05:57:29.874Z,1.65
2023-05-16T06:00:15.599Z,1.50
2023-05-16T06:03:01.393Z,1.88
2023-05-16T06:05:46.754Z,2.30
2023-05-16T06:08:32.066Z,1.88
2023-05-16T06:11:17.231Z,1.83
2023-05-16T06:14:02.811Z,1.52
2023-05-16T06:16:48.333Z,1.30
2023-05-16T06:19:33.798Z,1.83
2023-05-16T06:22:19.332Z,1.83
2023-05-16T06:25:04.867Z,1.83
2023-05-16T06:27:50.804Z,1.70
2023-05-16T06:30:36.475Z,1.60
2023-05-16T06:33:21.834Z,2.33
2023-05-16T06:36:07.636Z,2.30
2023-05-16T06:38:53.429Z,1.30
2023-05-16T06:41:38.897Z,1.90
2023-05-16T06:44:24.843Z,1.92
2023-05-16T06:47:10.129Z,1.63
2023-05-16T06:49:55.849Z,1.42
2023-05-16T06:52:42.297Z,1.98
2023-05-16T06:55:28.120Z,2.03
2023-05-16T06:58:14.130Z,2.30
2023-05-16T07:00:59.800Z,3.25
2023-05-16T07:03:45.374Z,2.25
2023-05-16T07:06:31.238Z,1.80
2023-05-16T07:09:16.566Z,2.38
2023-05-16T07:12:02.033Z,2.60
2023-05-16T07:14:47.897Z,2.50
2023-05-16T07:17:33.618Z,2.80
2023-05-16T07:20:18.901Z,2.75
2023-05-16T07:23:04.338Z,2.00
2023-05-16T07:25:50.153Z,2.25
2023-05-16T07:28:38.005Z,2.67
2023-05-16T07:31:24.386Z,2.70
2023-05-16T07:34:11.209Z,2.55
2023-05-16T07:36:56.728Z,2.75
2023-05-16T07:39:42.863Z,2.38
2023-05-16T07:42:28.596Z,2.40
2023-05-16T07:45:13.975Z,2.00
2023-05-16T07:48:00.470Z,2.42
2023-05-16T07:50:46.137Z,3.38
2023-05-16T07:53:31.548Z,2.65
2023-05-16T07:56:17.049Z,2.38
2023-05-16T07:59:03.245Z,2.85
2023-05-16T08:01:48.758Z,3.15
2023-05-16T08:04:34.286Z,3.85
2023-05-16T08:07:19.556Z,2.80
2023-05-16T08:10:05.566Z,3.22
2023-05-16T08:12:51.233Z,3.35
2023-05-16T08:15:37.189Z,3.55
2023-05-16T08:18:22.882Z,3.42
2023-05-16T08:21:11.951Z,3.58
2023-05-16T08:23:57.919Z,2.80
2023-05-16T08:26:43.286Z,3.70
2023-05-16T08:29:28.736Z,3.85
2023-05-16T08:32:14.010Z,3.45
2023-05-16T08:35:00.473Z,3.45
2023-05-16T08:37:46.156Z,3.22
2023-05-16T08:40:31.742Z,2.75
2023-05-16T08:43:17.256Z,3.45
2023-05-16T08:46:02.863Z,4.20
2023-05-16T08:48:52.793Z,4.38
2023-05-16T08:51:38.815Z,3.50
2023-05-16T08:54:26.233Z,3.42
2023-05-16T08:57:14.675Z,3.47
2023-05-16T09:00:00.263Z,3.75
2023-05-16T09:02:46.363Z,3.25
2023-05-16T09:05:33.149Z,2.85
2023-05-16T09:08:18.626Z,3.17
2023-05-16T09:11:04.295Z,2.78
2023-05-16T09:13:50.158Z,3.28
2023-05-16T09:16:35.794Z,3.33
2023-05-16T09:19:23.570Z,3.22
2023-05-16T09:22:11.646Z,3.03
2023-05-16T09:25:00.581Z,3.58
2023-05-16T09:27:52.626Z,3.80
2023-05-16T09:30:39.644Z,3.10
2023-05-16T09:33:28.253Z,2.78
2023-05-16T09:36:14.764Z,2.88
2023-05-16T09:39:01.872Z,2.78
2023-05-16T09:41:52.509Z,3.33
2023-05-16T09:44:38.404Z,2.80
2023-05-16T09:47:24.066Z,2.80
2023-05-16T09:50:09.803Z,3.60
2023-05-16T09:52:56.956Z,2.80
2023-05-16T09:55:42.391Z,2.70
2023-05-16T09:58:38.717Z,2.83
2023-05-16T10:01:24.994Z,3.65
2023-05-16T10:04:14.399Z,3.92
2023-05-16T10:07:05.558Z,2.60
2023-05-16T10:09:52.845Z,2.63
2023-05-16T10:12:38.950Z,3.10
2023-05-16T10:15:25.146Z,3.42
2023-05-16T10:18:13.540Z,3.30
2023-05-16T10:21:11.810Z,2.83
2023-05-16T10:24:02.961Z,2.83
2023-05-16T10:26:49.626Z,3.67
2023-05-16T10:29:46.427Z,3.38
2023-05-16T10:32:43.081Z,2.75
2023-05-16T10:35:29.105Z,3.72
2023-05-16T10:38:20.034Z,2.83
2023-05-16T10:41:07.218Z,2.35
2023-05-16T10:43:59.649Z,3.63
2023-05-16T10:46:47.553Z,2.78
2023-05-16T10:49:33.410Z,2.65
2023-05-16T10:52:19.020Z,2.90
2023-05-16T10:55:07.170Z,3.08
2023-05-16T10:57:52.707Z,3.33
2023-05-16T11:00:40.092Z,3.33
2023-05-16T11:03:28.729Z,2.58
2023-05-16T11:06:21.413Z,3.33
2023-05-16T11:09:08.245Z,2.75
2023-05-16T11:11:53.814Z,3.10
2023-05-16T11:14:47.731Z,3.22
2023-05-16T11:17:41.125Z,2.88
2023-05-16T11:20:31.973Z,3.13
2023-05-16T11:23:17.631Z,3.00
2023-05-16T11:26:03.510Z,3.35
2023-05-16T11:28:52.711Z,3.10
2023-05-16T11:31:38.499Z,2.92
2023-05-16T11:34:23.847Z,3.03
2023-05-16T11:37:12.096Z,4.13
2023-05-16T11:40:02.308Z,2.85
2023-05-16T11:42:48.482Z,3.58
2023-05-16T11:45:34.821Z,3.97
2023-05-16T11:48:32.485Z,2.83
2023-05-16T11:51:21.568Z,3.78
2023-05-16T11:54:09.630Z,3.10
2023-05-16T11:56:55.589Z,3.50
2023-05-16T11:59:41.570Z,3.28
2023-05-16T12:02:29.883Z,3.15
2023-05-16T12:05:17.298Z,3.25
2023-05-16T12:08:04.878Z,3.58
2023-05-16T12:10:56.156Z,3.03
2023-05-16T12:13:41.848Z,2.72
2023-05-16T12:16:27.598Z,3.60
2023-05-16T12:19:14.230Z,3.33
2023-05-16T12:22:00.119Z,2.45
2023-05-16T12:24:45.997Z,3.10
2023-05-16T12:27:33.018Z,3.45
2023-05-16T12:30:19.168Z,1.90
2023-05-16T12:33:13.061Z,2.60
2023-05-16T12:35:59.600Z,2.95
2023-05-16T12:38:47.731Z,3.00
2023-05-16T12:41:33.185Z,3.08
2023-05-16T12:44:20.098Z,2.88
2023-05-16T12:47:12.439Z,2.80
2023-05-16T12:49:57.725Z,2.33
2023-05-16T12:53:00.045Z,3.03
2023-05-16T12:55:46.111Z,2.95
2023-05-16T12:58:31.915Z,2.42
2023-05-16T13:01:17.363Z,2.90
2023-05-16T13:04:04.684Z,2.80
2023-05-16T13:09:38.953Z,2.78
2023-05-16T13:12:27.096Z,3.15
2023-05-16T13:15:12.845Z,2.80
2023-05-16T13:17:58.346Z,2.65
2023-05-16T13:20:44.559Z,2.72
2023-05-16T13:23:30.762Z,3.17
2023-05-16T13:26:16.367Z,2.90
2023-05-16T13:29:02.382Z,2.50
2023-05-16T13:31:48.190Z,2.72
2023-05-16T13:34:34.109Z,2.90
2023-05-16T13:37:22.496Z,2.92
2023-05-16T13:40:11.326Z,2.58
2023-05-16T13:42:57.609Z,2.85
2023-05-16T13:45:44.272Z,2.88
2023-05-16T13:48:29.853Z,3.00
2023-05-16T13:51:15.597Z,2.40
2023-05-16T13:54:01.079Z,2.80
2023-05-16T13:56:46.816Z,2.45
2023-05-16T13:59:56.749Z,2.20
2023-05-16T14:02:37.422Z,2.90
2023-05-16T14:05:23.093Z,2.60
2023-05-16T14:08:08.929Z,3.05
2023-05-16T14:10:54.351Z,3.42
2023-05-16T14:13:42.482Z,2.75
2023-05-16T14:16:29.512Z,2.28
2023-05-16T14:19:16.702Z,3.00
2023-05-16T14:22:03.224Z,2.78
2023-05-16T14:24:48.801Z,3.05
2023-05-16T14:27:34.201Z,2.17
2023-05-16T14:30:19.514Z,2.90
2023-05-16T14:33:06.242Z,2.95
2023-05-16T14:35:52.541Z,3.13
2023-05-16T14:38:38.254Z,2.70
2023-05-16T14:41:23.746Z,3.05
2023-05-16T14:44:09.927Z,2.58
2023-05-16T14:46:55.522Z,2.72
2023-05-16T14:49:41.679Z,2.53
2023-05-16T14:52:26.985Z,2.72
2023-05-16T14:55:12.669Z,2.72
2023-05-16T14:57:59.973Z,3.05
2023-05-16T15:00:46.325Z,2.47
2023-05-16T15:03:43.299Z,2.50
2023-05-16T15:06:36.664Z,2.25
2023-05-16T15:09:22.464Z,2.30
2023-05-16T15:12:08.455Z,2.35
2023-05-16T15:14:54.034Z,2.05
2023-05-16T15:17:41.974Z,2.05
2023-05-16T15:20:28.262Z,2.50
2023-05-16T15:23:14.054Z,2.60
2023-05-16T15:25:59.478Z,3.00
2023-05-16T15:28:44.887Z,2.58
2023-05-16T15:31:32.313Z,2.08
2023-05-16T15:34:18.106Z,2.60
2023-05-16T15:37:03.985Z,2.42
2023-05-16T15:39:49.438Z,2.72
2023-05-16T15:42:35.504Z,2.83
2023-05-16T15:45:21.276Z,2.53
2023-05-16T15:48:07.218Z,2.92
2023-05-16T15:50:53.207Z,2.22
2023-05-16T15:53:38.847Z,2.50
2023-05-16T15:56:24.371Z,2.17
2023-05-16T15:59:09.793Z,2.40
2023-05-16T16:01:55.645Z,2.17
2023-05-16T16:04:41.194Z,2.55
2023-05-16T16:07:26.914Z,2.45
2023-05-16T16:10:12.650Z,2.55
2023-05-16T16:13:00.232Z,1.85
2023-05-16T16:15:45.953Z,2.20
2023-05-16T16:18:31.376Z,3.17
2023-05-16T16:21:16.882Z,2.97
2023-05-16T16:24:02.419Z,2.28
2023-05-16T16:26:47.667Z,2.72
2023-05-16T16:29:33.166Z,2.40
2023-05-16T16:32:18.400Z,2.45
2023-05-16T16:35:05.513Z,2.53
2023-05-16T16:38:05.643Z,2.00
2023-05-16T16:40:52.384Z,1.80
2023-05-16T16:43:40.870Z,1.88
2023-05-16T16:46:27.148Z,2.15
2023-05-16T16:49:12.740Z,1.65
2023-05-16T16:51:58.636Z,2.03
2023-05-16T16:54:43.940Z,1.67
2023-05-16T16:57:29.334Z,1.92
2023-05-16T17:00:15.402Z,2.13
2023-05-16T17:03:01.020Z,2.35
2023-05-16T17:05:46.867Z,2.00
2023-05-16T17:08:32.133Z,1.98
2023-05-16T17:11:22.914Z,1.70
2023-05-16T17:14:10.798Z,2.22
2023-05-16T17:16:56.844Z,1.67
2023-05-16T17:19:43.187Z,2.08
2023-05-16T17:22:28.553Z,1.95
2023-05-16T17:25:13.967Z,2.00
2023-05-16T17:27:59.708Z,1.95
2023-05-16T17:30:45.646Z,2.75
2023-05-16T17:33:31.296Z,1.83
2023-05-16T17:36:17.065Z,1.70
2023-05-16T17:39:02.379Z,1.95
2023-05-16T17:41:48.103Z,2.70
2023-05-16T17:44:33.562Z,2.05
2023-05-16T17:47:19.811Z,2.00
2023-05-16T17:50:08.719Z,2.08
2023-05-16T17:52:55.070Z,2.58
2023-05-16T17:55:40.402Z,1.98
2023-05-16T17:58:25.758Z,1.95
2023-05-16T18:01:13.078Z,1.38
2023-05-16T18:03:58.934Z,1.70
2023-05-16T18:06:46.156Z,2.20
2023-05-16T18:09:31.907Z,2.60
2023-05-16T18:12:17.350Z,2.72
2023-05-16T18:15:04.051Z,2.70
2023-05-16T18:17:49.683Z,2.75
2023-05-16T18:20:35.664Z,3.70
2023-05-16T18:23:21.560Z,2.20
2023-05-16T18:26:06.987Z,2.80
2023-05-16T18:28:52.239Z,2.80
2023-05-16T18:31:41.352Z,2.95
2023-05-16T18:34:26.667Z,2.28
2023-05-16T18:37:12.185Z,2.40
2023-05-16T18:39:57.879Z,2.53
2023-05-16T18:42:43.205Z,1.60
2023-05-16T18:45:30.207Z,1.92
2023-05-16T18:48:15.947Z,2.00
2023-05-16T18:51:01.789Z,2.33
2023-05-16T18:53:47.389Z,2.63
2023-05-16T18:56:32.808Z,1.80
2023-05-16T18:59:18.901Z,1.90
2023-05-16T19:02:04.683Z,2.65
2023-05-16T19:04:50.497Z,2.50
2023-05-16T19:07:38.569Z,2.08
2023-05-16T19:10:25.262Z,2.50
2023-05-16T19:13:11.120Z,2.70
2023-05-16T19:15:56.533Z,2.40
2023-05-16T19:18:42.188Z,2.78
2023-05-16T19:21:27.839Z,2.47
2023-05-16T19:24:13.419Z,2.53
2023-05-16T19:26:58.957Z,2.42
2023-05-16T19:29:44.782Z,3.15
2023-05-16T19:32:30.467Z,2.88
2023-05-16T19:35:16.024Z,2.92
2023-05-16T19:38:01.370Z,2.72
2023-05-16T19:40:47.118Z,2.88
2023-05-16T19:43:33.885Z,3.65
2023-05-16T19:46:19.403Z,3.35
2023-05-16T19:49:06.651Z,3.00
2023-05-16T19:51:52.146Z,2.47
2023-05-16T19:54:37.578Z,3.75
2023-05-16T19:57:22.948Z,2.92
2023-05-16T20:00:09.657Z,3.10
2023-05-16T20:03:01.215Z,3.38
2023-05-16T20:05:46.891Z,3.25
2023-05-16T20:08:32.363Z,2.70
2023-05-16T20:11:19.166Z,2.90
2023-05-16T20:14:04.800Z,2.90
2023-05-16T20:16:51.495Z,3.25
2023-05-16T20:19:37.643Z,3.70
2023-05-16T20:22:23.592Z,3.28
2023-05-16T20:25:13.168Z,3.05
2023-05-16T20:28:01.055Z,4.38
2023-05-16T20:30:46.584Z,3.50
2023-05-16T20:33:32.075Z,3.47
2023-05-16T20:36:17.691Z,3.08
2023-05-16T20:39:03.957Z,3.50
2023-05-16T20:41:49.503Z,3.85
2023-05-16T20:44:34.787Z,3.00
2023-05-16T20:47:20.454Z,3.88
2023-05-16T20:50:06.662Z,2.83
2023-05-16T20:52:52.197Z,3.22
2023-05-16T20:55:37.591Z,4.05
2023-05-16T20:58:23.167Z,3.85
2023-05-16T21:01:09.156Z,3.40
2023-05-16T21:03:54.327Z,3.78
2023-05-16T21:06:39.777Z,3.47
2023-05-16T21:09:25.023Z,3.45
2023-05-16T21:12:10.442Z,4.13
2023-05-16T21:14:56.226Z,3.80
2023-05-16T21:17:42.314Z,3.70
2023-05-16T21:20:30.173Z,3.83
2023-05-16T21:23:18.219Z,3.78
2023-05-16T21:26:03.512Z,3.70
2023-05-16T21:28:55.170Z,4.65
2023-05-16T21:31:41.820Z,3.67
2023-05-16T21:34:27.394Z,4.57
2023-05-16T21:37:12.902Z,3.17
2023-05-16T21:39:58.429Z,4.63
2023-05-16T21:42:44.084Z,4.13
2023-05-16T21:45:29.886Z,3.70
2023-05-16T21:48:15.698Z,4.30
2023-05-16T21:51:01.912Z,4.20
2023-05-16T21:53:47.255Z,4.03
2023-05-16T21:56:32.507Z,5.20
2023-05-16T21:59:17.867Z,4.82
2023-05-16T22:02:03.345Z,6.60
2023-05-16T22:04:53.491Z,4.53
2023-05-16T22:07:38.944Z,5.10
2023-05-16T22:10:24.328Z,5.38
2023-05-16T22:13:09.796Z,4.85
2023-05-16T22:16:04.040Z,4.32
2023-05-16T22:18:50.835Z,4.75
2023-05-16T22:21:36.596Z,4.75
2023-05-16T22:24:22.365Z,4.65
2023-05-16T22:27:07.905Z,5.28
2023-05-16T22:29:53.398Z,4.63
2023-05-16T22:32:39.000Z,5.10
2023-05-16T22:35:31.669Z,4.88
2023-05-16T22:38:17.370Z,5.40
2023-05-16T22:41:02.661Z,4.95
2023-05-16T22:43:48.001Z,6.20
2023-05-16T22:46:33.222Z,5.35
2023-05-16T22:49:19.105Z,5.47
2023-05-16T22:52:04.789Z,4.85
2023-05-16T22:54:50.297Z,5.47
2023-05-16T22:57:36.070Z,5.68
2023-05-16T23:00:23.650Z,5.10
2023-05-16T23:03:08.880Z,6.15
2023-05-16T23:05:55.793Z,5.15
2023-05-16T23:08:42.419Z,5.60
2023-05-16T23:11:27.625Z,5.43
2023-05-16T23:14:13.182Z,5.97
2023-05-16T23:16:58.457Z,4.35
2023-05-16T23:19:43.790Z,5.25
2023-05-16T23:22:29.529Z,5.15
2023-05-16T23:25:14.853Z,5.50
2023-05-16T23:28:00.315Z,5.60
2023-05-16T23:30:45.771Z,4.72
2023-05-16T23:33:31.562Z,6.05
2023-05-16T23:36:16.803Z,7.60
2023-05-16T23:39:02.431Z,6.75
2023-05-16T23:41:50.079Z,6.28
2023-05-16T23:44:35.499Z,8.95
2023-05-16T23:47:20.907Z,8.10
2023-05-16T23:50:07.189Z,8.55
2023-05-16T23:52:52.962Z,8.90
2023-05-16T23:55:38.442Z,8.32
2023-05-16T23:58:23.748Z,11.73
